createdAt,value
2019-04-03T00:00:21.554Z,12.9
2019-04-03T00:02:46.390Z,12.9
2019-04-03T00:03:45.904Z,12.8
2019-04-03T00:04:45.201Z,12.8
2019-04-03T00:05:44.283Z,12.8
2019-04-03T00:06:43.719Z,12.8
2019-04-03T00:07:42.583Z,12.8
2019-04-03T00:08:41.777Z,12.7
2019-04-03T00:09:41.281Z,12.8
2019-04-03T00:10:11.579Z,12.8
2019-04-03T00:11:41.562Z,12.7
2019-04-03T00:12:42.178Z,12.7
2019-04-03T00:13:39.709Z,12.7
2019-04-03T00:14:37.141Z,12.7
2019-04-03T00:15:36.526Z,12.7
2019-04-03T00:16:35.491Z,12.6
2019-04-03T00:17:35.014Z,12.6
2019-04-03T00:18:33.969Z,12.6
2019-04-03T00:19:33.193Z,12.6
2019-04-03T00:20:32.179Z,12.5
2019-04-03T00:21:02.413Z,12.5
2019-04-03T00:21:32.722Z,12.5
2019-04-03T00:22:30.746Z,12.5
2019-04-03T00:23:29.951Z,12.5
2019-04-03T00:24:28.819Z,12.5
2019-04-03T00:25:28.252Z,12.5
2019-04-03T00:25:58.696Z,12.5
2019-04-03T00:26:32.275Z,12.5
2019-04-03T00:26:59.496Z,12.5
2019-04-03T00:27:30.161Z,12.4
2019-04-03T00:28:26.158Z,12.4
2019-04-03T00:29:25.226Z,12.4
2019-04-03T00:30:23.969Z,12.4
2019-04-03T00:31:25.095Z,12.4
2019-04-03T00:32:24.912Z,12.4
2019-04-03T00:33:25.052Z,12.4
2019-04-03T00:34:24.439Z,12.3
2019-04-03T00:35:22.999Z,12.3
2019-04-03T00:36:19.516Z,12.3
2019-04-03T00:36:52.869Z,12.3
2019-04-03T00:37:23.987Z,12.3
2019-04-03T00:37:54.413Z,12.3
2019-04-03T00:38:24.919Z,12.2
2019-04-03T00:39:17.305Z,12.2
2019-04-03T00:40:16.356Z,12.2
2019-04-03T00:41:15.197Z,12.1
2019-04-03T00:42:14.598Z,12.1
2019-04-03T00:43:13.957Z,12.1
2019-04-03T00:44:12.735Z,12
2019-04-03T00:45:12.122Z,12
2019-04-03T00:46:11.585Z,11.9
2019-04-03T00:46:41.881Z,11.9
2019-04-03T00:47:12.372Z,11.9
2019-04-03T00:47:42.595Z,11.9
2019-04-03T00:49:09.359Z,11.8
2019-04-03T00:50:08.075Z,11.8
2019-04-03T00:51:07.455Z,11.8
2019-04-03T00:52:06.402Z,11.7
2019-04-03T00:53:05.764Z,11.7
2019-04-03T00:54:04.787Z,11.7
2019-04-03T00:55:04.017Z,11.6
2019-04-03T00:56:03.592Z,11.6
2019-04-03T00:56:33.917Z,11.6
2019-04-03T00:57:04.161Z,11.6
2019-04-03T00:57:34.382Z,11.6
2019-04-03T00:58:04.875Z,11.6
2019-04-03T00:58:35.072Z,11.6
2019-04-03T01:00:00.034Z,11.6
2019-04-03T01:00:58.874Z,11.5
2019-04-03T01:01:58.473Z,11.5
2019-04-03T01:03:00.278Z,11.5
2019-04-03T01:04:00.072Z,11.5
2019-04-03T01:04:59.219Z,11.4
2019-04-03T01:05:55.247Z,11.4
2019-04-03T01:06:26.633Z,11.4
2019-04-03T01:06:59.372Z,11.4
2019-04-03T01:07:30.065Z,11.4
2019-04-03T01:08:01.025Z,11.3
2019-04-03T01:08:30.854Z,11.3
2019-04-03T01:09:01.146Z,11.3
2019-04-03T01:09:30.963Z,11.3
2019-04-03T01:10:50.937Z,11.3
2019-04-03T01:11:50.409Z,11.3
2019-04-03T01:12:49.193Z,11.2
2019-04-03T01:13:48.622Z,11.2
2019-04-03T01:14:47.561Z,11.2
2019-04-03T01:15:47.012Z,11.2
2019-04-03T01:16:17.343Z,11.2
2019-04-03T01:16:47.544Z,11.1
2019-04-03T01:17:18.395Z,11.1
2019-04-03T01:17:48.693Z,11.1
2019-04-03T01:18:18.999Z,11.1
2019-04-03T01:18:49.527Z,11.1
2019-04-03T01:19:19.753Z,11.1
2019-04-03T01:19:49.873Z,11.1
2019-04-03T01:20:20.536Z,11.1
2019-04-03T01:21:42.110Z,11
2019-04-03T01:22:41.275Z,11
2019-04-03T01:23:40.472Z,11
2019-04-03T01:24:40.161Z,10.9
2019-04-03T01:25:41.173Z,10.9
2019-04-03T01:26:11.365Z,10.9
2019-04-03T01:26:42.159Z,10.9
2019-04-03T01:27:12.858Z,10.9
2019-04-03T01:27:43.034Z,10.9
2019-04-03T01:28:13.011Z,10.9
2019-04-03T01:28:43.638Z,10.8
2019-04-03T01:29:13.798Z,10.8
2019-04-03T01:29:44.434Z,10.8
2019-04-03T01:30:15.392Z,10.8
2019-04-03T01:30:45.847Z,10.8
2019-04-03T01:31:16.185Z,10.8
2019-04-03T01:32:32.800Z,10.8
2019-04-03T01:33:32.349Z,10.8
2019-04-03T01:34:31.327Z,10.7
2019-04-03T01:35:30.220Z,10.7
2019-04-03T01:36:29.608Z,10.7
2019-04-03T01:36:59.714Z,10.7
2019-04-03T01:37:30.476Z,10.7
2019-04-03T01:38:01.215Z,10.7
2019-04-03T01:38:31.467Z,10.7
2019-04-03T01:39:01.580Z,10.7
2019-04-03T01:39:32.520Z,10.7
2019-04-03T01:40:02.974Z,10.7
2019-04-03T01:40:33.355Z,10.7
2019-04-03T01:41:03.797Z,10.7
2019-04-03T01:42:24.155Z,10.7
2019-04-03T01:43:24.779Z,10.7
2019-04-03T01:44:26.281Z,10.6
2019-04-03T01:45:22.243Z,10.6
2019-04-03T01:46:21.458Z,10.6
2019-04-03T01:47:20.460Z,10.6
2019-04-03T01:47:50.822Z,10.6
2019-04-03T01:48:21.268Z,10.6
2019-04-03T01:48:51.599Z,10.6
2019-04-03T01:50:18.106Z,10.6
2019-04-03T01:50:48.198Z,10.6
2019-04-03T01:51:19.070Z,10.6
2019-04-03T01:51:49.626Z,10.6
2019-04-03T01:52:19.719Z,10.6
2019-04-03T01:53:15.136Z,10.6
2019-04-03T01:54:14.859Z,10.6
2019-04-03T01:55:13.796Z,10.6
2019-04-03T01:56:12.751Z,10.6
2019-04-03T01:57:12.200Z,10.6
2019-04-03T01:58:11.010Z,10.5
2019-04-03T01:58:41.289Z,10.5
2019-04-03T01:59:11.442Z,10.5
2019-04-03T01:59:42.224Z,10.5
2019-04-03T02:00:12.605Z,10.5
2019-04-03T02:00:42.625Z,10.5
2019-04-03T02:02:09.835Z,10.5
2019-04-03T02:03:09.702Z,10.5
2019-04-03T02:04:06.077Z,10.5
2019-04-03T02:05:05.531Z,10.5
2019-04-03T02:06:04.315Z,10.5
2019-04-03T02:07:03.855Z,10.5
2019-04-03T02:08:02.771Z,10.5
2019-04-03T02:09:01.739Z,10.4
2019-04-03T02:11:29.734Z,10.4
2019-04-03T02:11:31.771Z,10.4
2019-04-03T02:12:02.070Z,10.4
2019-04-03T02:12:58.464Z,10.4
2019-04-03T02:13:57.859Z,10.4
2019-04-03T02:14:56.768Z,10.4
2019-04-03T02:15:56.081Z,10.4
2019-04-03T02:16:55.373Z,10.4
2019-04-03T02:17:56.235Z,10.4
2019-04-03T02:18:57.037Z,10.4
2019-04-03T02:19:52.709Z,10.4
2019-04-03T02:20:22.861Z,10.4
2019-04-03T02:21:50.886Z,10.4
2019-04-03T02:22:50.304Z,10.3
2019-04-03T02:23:49.269Z,10.3
2019-04-03T02:24:48.744Z,10.3
2019-04-03T02:25:47.635Z,10.3
2019-04-03T02:26:46.531Z,10.3
2019-04-03T02:27:46.074Z,10.3
2019-04-03T02:28:45.163Z,10.3
2019-04-03T02:29:44.310Z,10.3
2019-04-03T02:31:43.452Z,10.3
2019-04-03T02:32:41.974Z,10.3
2019-04-03T02:33:41.133Z,10.2
2019-04-03T02:34:40.213Z,10.2
2019-04-03T02:36:38.679Z,10.2
2019-04-03T02:37:37.895Z,10.2
2019-04-03T02:38:37.330Z,10.2
2019-04-03T02:39:35.978Z,10.2
2019-04-03T02:40:35.316Z,10.2
2019-04-03T02:41:38.718Z,10.3
2019-04-03T02:42:10.913Z,10.3
2019-04-03T02:42:36.085Z,10.3
2019-04-03T02:43:32.739Z,10.3
2019-04-03T02:44:31.831Z,10.3
2019-04-03T02:45:30.894Z,10.2
2019-04-03T02:46:01.538Z,10.2
2019-04-03T02:47:35.055Z,10.2
2019-04-03T02:47:59.977Z,10.2
2019-04-03T02:48:30.694Z,10.2
2019-04-03T02:49:27.391Z,10.2
2019-04-03T02:50:26.821Z,10.2
2019-04-03T02:51:26.016Z,10.1
2019-04-03T02:52:27.241Z,10.1
2019-04-03T02:53:24.064Z,10.1
2019-04-03T02:54:23.100Z,10.1
2019-04-03T02:55:22.219Z,10.1
2019-04-03T02:55:52.574Z,10.1
2019-04-03T02:56:23.068Z,10.1
2019-04-03T02:56:53.544Z,10.1
2019-04-03T02:58:24.163Z,10.1
2019-04-03T02:59:18.900Z,10.1
2019-04-03T03:00:18.242Z,10
2019-04-03T03:01:17.505Z,10
2019-04-03T03:02:16.631Z,10
2019-04-03T03:03:19.451Z,9.9
2019-04-03T03:04:14.686Z,9.9
2019-04-03T03:05:13.912Z,9.9
2019-04-03T03:06:13.008Z,9.9
2019-04-03T03:06:43.796Z,9.9
2019-04-03T03:07:13.771Z,9.9
2019-04-03T03:07:44.320Z,9.9
2019-04-03T03:09:15.190Z,9.8
2019-04-03T03:10:09.942Z,9.8
2019-04-03T03:11:08.974Z,9.8
2019-04-03T03:12:08.087Z,9.8
2019-04-03T03:13:07.121Z,9.7
2019-04-03T03:14:09.273Z,9.7
2019-04-03T03:15:05.439Z,9.7
2019-04-03T03:16:04.891Z,9.7
2019-04-03T03:16:35.022Z,9.7
2019-04-03T03:17:05.835Z,9.7
2019-04-03T03:17:35.729Z,9.7
2019-04-03T03:18:06.021Z,9.6
2019-04-03T03:18:36.757Z,9.6
2019-04-03T03:20:08.149Z,9.6
2019-04-03T03:20:31.714Z,9.6
2019-04-03T03:21:02.155Z,9.6
2019-04-03T03:21:59.350Z,9.6
2019-04-03T03:22:58.888Z,9.5
2019-04-03T03:23:58.861Z,9.5
2019-04-03T03:25:00.906Z,9.5
2019-04-03T03:25:55.788Z,9.5
2019-04-03T03:26:26.709Z,9.5
2019-04-03T03:26:56.518Z,9.5
2019-04-03T03:27:26.949Z,9.5
2019-04-03T03:27:57.766Z,9.5
2019-04-03T03:28:27.813Z,9.5
2019-04-03T03:29:19.653Z,9.5
2019-04-03T03:29:29.621Z,9.5
2019-04-03T03:31:08.815Z,9.5
2019-04-03T03:32:36.815Z,9.5
2019-04-03T03:32:43.074Z,9.5
2019-04-03T03:33:48.728Z,9.4
2019-04-03T03:35:44.321Z,9.5
2019-04-03T03:35:54.178Z,9.5
2019-04-03T03:36:29.596Z,9.5
2019-04-03T03:36:51.118Z,9.5
2019-04-03T03:37:19.322Z,9.5
2019-04-03T03:37:49.455Z,9.4
2019-04-03T03:38:19.682Z,9.4
2019-04-03T03:38:50.287Z,9.4
2019-04-03T03:39:20.629Z,9.4
2019-04-03T03:39:51.126Z,9.4
2019-04-03T03:40:21.746Z,9.4
2019-04-03T03:41:42.114Z,9.4
2019-04-03T03:42:41.700Z,9.4
2019-04-03T03:44:47.762Z,9.3
2019-04-03T03:45:38.982Z,9.3
2019-04-03T03:46:09.361Z,9.3
2019-04-03T03:46:40.027Z,9.3
2019-04-03T03:47:10.467Z,9.3
2019-04-03T03:47:40.862Z,9.3
2019-04-03T03:48:12.963Z,9.3
2019-04-03T03:48:46.939Z,9.4
2019-04-03T03:49:19.337Z,9.4
2019-04-03T03:49:42.393Z,9.4
2019-04-03T03:50:13.516Z,9.4
2019-04-03T03:51:34.029Z,9.4
2019-04-03T03:52:40.015Z,9.4
2019-04-03T03:53:31.718Z,9.4
2019-04-03T03:54:30.996Z,9.4
2019-04-03T03:55:30.328Z,9.4
2019-04-03T03:56:33.994Z,9.4
2019-04-03T03:57:07.169Z,9.4
2019-04-03T03:57:29.847Z,9.4
2019-04-03T03:57:59.818Z,9.4
2019-04-03T03:58:30.452Z,9.4
2019-04-03T03:59:01.350Z,9.4
2019-04-03T03:59:31.170Z,9.4
2019-04-03T04:00:01.567Z,9.4
2019-04-03T04:01:25.391Z,9.3
2019-04-03T04:02:24.001Z,9.3
2019-04-03T04:03:23.582Z,9.3
2019-04-03T04:04:22.393Z,9.3
2019-04-03T04:05:24.440Z,9.3
2019-04-03T04:06:20.806Z,9.4
2019-04-03T04:07:19.612Z,9.4
2019-04-03T04:07:50.235Z,9.4
2019-04-03T04:08:20.963Z,9.4
2019-04-03T04:08:51.080Z,9.4
2019-04-03T04:09:22.730Z,9.4
2019-04-03T04:09:54.125Z,9.4
2019-04-03T04:11:16.056Z,9.4
2019-04-03T04:12:15.545Z,9.4
2019-04-03T04:13:17.463Z,9.4
2019-04-03T04:14:13.899Z,9.4
2019-04-03T04:15:12.233Z,9.4
2019-04-03T04:16:11.970Z,9.4
2019-04-03T04:17:20.146Z,9.3
2019-04-03T04:18:16.832Z,9.3
2019-04-03T04:18:40.983Z,9.3
2019-04-03T04:19:11.552Z,9.3
2019-04-03T04:19:41.481Z,9.3
2019-04-03T04:20:12.585Z,9.3
2019-04-03T04:20:42.512Z,9.3
2019-04-03T04:21:13.615Z,9.3
2019-04-03T04:21:46.577Z,9.3
2019-04-03T04:22:19.788Z,9.3
2019-04-03T04:22:51.368Z,9.3
2019-04-03T04:23:15.468Z,9.3
2019-04-03T04:24:05.430Z,9.3
2019-04-03T04:25:03.979Z,9.2
2019-04-03T04:26:03.427Z,9.2
2019-04-03T04:27:04.870Z,9.2
2019-04-03T04:28:01.504Z,9.2
2019-04-03T04:29:00.590Z,9.2
2019-04-03T04:29:30.770Z,9.2
2019-04-03T04:30:01.816Z,9.2
2019-04-03T04:30:32.148Z,9.2
2019-04-03T04:31:02.513Z,9.2
2019-04-03T04:31:32.753Z,9.2
2019-04-03T04:32:02.999Z,9.2
2019-04-03T04:32:57.130Z,9.2
2019-04-03T04:34:54.904Z,9.1
2019-04-03T04:35:54.680Z,9.1
2019-04-03T04:36:57.038Z,9.1
2019-04-03T04:37:55.216Z,9.1
2019-04-03T04:38:52.044Z,9.1
2019-04-03T04:39:51.080Z,9.1
2019-04-03T04:40:21.449Z,9.1
2019-04-03T04:40:52.172Z,9.1
2019-04-03T04:41:49.282Z,9
2019-04-03T04:42:48.199Z,9
2019-04-03T04:43:47.122Z,9
2019-04-03T04:44:46.804Z,9
2019-04-03T04:45:16.889Z,9
2019-04-03T04:45:47.829Z,9
2019-04-03T04:46:46.256Z,9
2019-04-03T04:47:47.601Z,8.9
2019-04-03T04:48:43.089Z,8.9
2019-04-03T04:49:42.342Z,8.9
2019-04-03T04:50:41.508Z,8.9
2019-04-03T04:51:40.632Z,8.9
2019-04-03T04:52:39.716Z,8.9
2019-04-03T04:53:38.741Z,8.9
2019-04-03T04:54:37.811Z,8.9
2019-04-03T04:55:08.359Z,8.9
2019-04-03T04:56:39.554Z,8.9
2019-04-03T04:57:35.214Z,8.8
2019-04-03T04:58:34.156Z,8.8
2019-04-03T04:59:37.521Z,8.8
2019-04-03T05:00:32.482Z,8.8
2019-04-03T05:01:31.465Z,8.8
2019-04-03T05:02:31.191Z,8.8
2019-04-03T05:03:29.741Z,8.8
2019-04-03T05:04:29.208Z,8.8
2019-04-03T05:05:32.430Z,8.8
2019-04-03T05:06:00.102Z,8.8
2019-04-03T05:06:30.849Z,8.8
2019-04-03T05:07:01.944Z,8.8
2019-04-03T05:07:32.727Z,8.8
2019-04-03T05:08:25.615Z,8.8
2019-04-03T05:09:24.720Z,8.8
2019-04-03T05:10:23.389Z,8.8
2019-04-03T05:11:22.941Z,8.8
2019-04-03T05:13:21.374Z,8.8
2019-04-03T05:14:20.337Z,8.8
2019-04-03T05:15:25.260Z,8.8
2019-04-03T05:15:49.686Z,8.8
2019-04-03T05:16:25.933Z,8.8
2019-04-03T05:16:50.722Z,8.8
2019-04-03T05:18:16.906Z,8.8
2019-04-03T05:19:20.831Z,8.8
2019-04-03T05:20:15.415Z,8.8
2019-04-03T05:21:14.620Z,8.8
2019-04-03T05:22:12.992Z,8.8
2019-04-03T05:23:12.562Z,8.8
2019-04-03T05:24:15.025Z,8.9
2019-04-03T05:25:10.487Z,8.9
2019-04-03T05:25:41.051Z,8.9
2019-04-03T05:26:11.342Z,8.9
2019-04-03T05:26:41.789Z,8.9
2019-04-03T05:27:12.214Z,8.9
2019-04-03T05:27:42.631Z,8.9
2019-04-03T05:29:07.464Z,8.9
2019-04-03T05:30:08.130Z,8.9
2019-04-03T05:31:09.824Z,8.9
2019-04-03T05:32:04.494Z,8.9
2019-04-03T05:33:03.608Z,9
2019-04-03T05:34:02.834Z,9
2019-04-03T05:35:02.032Z,9
2019-04-03T05:35:32.392Z,9
2019-04-03T05:36:02.817Z,9
2019-04-03T05:36:33.165Z,9
2019-04-03T05:37:03.674Z,9
2019-04-03T05:37:34.024Z,9
2019-04-03T05:38:04.651Z,9
2019-04-03T05:38:38.790Z,9
2019-04-03T05:39:57.824Z,9.1
2019-04-03T05:40:58.413Z,9.1
2019-04-03T05:41:59.760Z,9.1
2019-04-03T05:42:55.229Z,9.1
2019-04-03T05:43:53.965Z,9.1
2019-04-03T05:44:53.352Z,9.1
2019-04-03T05:45:23.735Z,9.1
2019-04-03T05:45:54.363Z,9.1
2019-04-03T05:46:24.607Z,9.1
2019-04-03T05:46:55.032Z,9.2
2019-04-03T05:47:25.483Z,9.2
2019-04-03T05:47:55.645Z,9.2
2019-04-03T05:48:26.520Z,9.2
2019-04-03T05:48:56.867Z,9.2
2019-04-03T05:49:26.961Z,9.2
2019-04-03T05:50:48.008Z,9.2
2019-04-03T05:51:47.255Z,9.2
2019-04-03T05:52:46.282Z,9.3
2019-04-03T05:53:45.061Z,9.3
2019-04-03T05:54:46.213Z,9.3
2019-04-03T05:55:14.940Z,9.3
2019-04-03T05:55:45.491Z,9.3
2019-04-03T05:56:16.065Z,9.3
2019-04-03T05:56:46.526Z,9.4
2019-04-03T05:57:16.899Z,9.4
2019-04-03T05:57:47.794Z,9.4
2019-04-03T05:58:18.083Z,9.4
2019-04-03T05:59:03.935Z,9.4
2019-04-03T05:59:18.261Z,9.4
2019-04-03T06:00:40.572Z,9.4
2019-04-03T06:01:46.919Z,9.5
2019-04-03T06:02:37.819Z,9.5
2019-04-03T06:03:46.842Z,9.5
2019-04-03T06:04:35.957Z,9.5
2019-04-03T06:05:34.937Z,9.6
2019-04-03T06:06:05.335Z,9.6
2019-04-03T06:06:35.758Z,9.6
2019-04-03T06:07:06.148Z,9.6
2019-04-03T06:07:36.803Z,9.6
2019-04-03T06:08:07.221Z,9.6
2019-04-03T06:08:37.999Z,9.6
2019-04-03T06:09:08.115Z,9.6
2019-04-03T06:10:38.551Z,9.7
2019-04-03T06:11:10.332Z,9.7
2019-04-03T06:11:31.799Z,9.7
2019-04-03T06:12:29.015Z,9.7
2019-04-03T06:13:28.196Z,9.7
2019-04-03T06:14:27.342Z,9.8
2019-04-03T06:15:26.374Z,9.8
2019-04-03T06:16:26.443Z,9.8
2019-04-03T06:16:58.333Z,9.8
2019-04-03T06:17:26.295Z,9.8
2019-04-03T06:17:57.473Z,9.8
2019-04-03T06:18:32.788Z,9.8
2019-04-03T06:19:00.687Z,9.8
2019-04-03T06:20:22.236Z,9.8
2019-04-03T06:21:21.442Z,9.8
2019-04-03T06:22:23.352Z,9.8
2019-04-03T06:23:23.227Z,9.8
2019-04-03T06:24:19.677Z,9.9
2019-04-03T06:25:17.922Z,9.9
2019-04-03T06:26:16.981Z,9.9
2019-04-03T06:26:47.430Z,9.9
2019-04-03T06:27:21.095Z,9.9
2019-04-03T06:27:48.364Z,9.9
2019-04-03T06:28:18.689Z,9.9
2019-04-03T06:28:49.125Z,9.9
2019-04-03T06:29:20.957Z,9.9
2019-04-03T06:29:56.408Z,9.9
2019-04-03T06:31:12.592Z,9.9
2019-04-03T06:32:11.628Z,9.9
2019-04-03T06:33:10.772Z,9.9
2019-04-03T06:34:09.915Z,9.9
2019-04-03T06:35:08.968Z,9.9
2019-04-03T06:36:07.837Z,10
2019-04-03T06:37:07.356Z,10
2019-04-03T06:37:37.609Z,10
2019-04-03T06:38:08.009Z,10
2019-04-03T06:38:38.536Z,10
2019-04-03T06:39:09.516Z,10
2019-04-03T06:39:39.112Z,10
2019-04-03T06:40:09.193Z,10
2019-04-03T06:40:40.158Z,10
2019-04-03T06:41:10.904Z,10
2019-04-03T06:42:03.269Z,10
2019-04-03T06:43:02.310Z,10
2019-04-03T06:44:01.268Z,10
2019-04-03T06:45:00.825Z,10
2019-04-03T06:45:59.471Z,10
2019-04-03T06:47:03.078Z,10
2019-04-03T06:47:58.161Z,10
2019-04-03T06:48:28.781Z,10
2019-04-03T06:48:59.132Z,10
2019-04-03T06:49:29.544Z,10
2019-04-03T06:49:59.929Z,10
2019-04-03T06:50:30.208Z,10
2019-04-03T06:51:00.283Z,10
2019-04-03T06:51:54.645Z,10
2019-04-03T06:52:54.879Z,10
2019-04-03T06:53:53.097Z,10
2019-04-03T06:54:51.837Z,10
2019-04-03T06:55:50.684Z,10
2019-04-03T06:56:54.199Z,10
2019-04-03T06:57:49.582Z,10
2019-04-03T06:58:48.542Z,10
2019-04-03T06:59:19.327Z,10
2019-04-03T06:59:50.510Z,10
2019-04-03T07:00:19.588Z,10
2019-04-03T07:00:53.799Z,9.9
2019-04-03T07:01:45.603Z,9.9
2019-04-03T07:02:45.201Z,9.9
2019-04-03T07:03:43.980Z,10
2019-04-03T07:04:43.552Z,10
2019-04-03T07:05:43.627Z,10
2019-04-03T07:06:45.261Z,10.1
2019-04-03T07:07:40.811Z,10.1
2019-04-03T07:08:42.757Z,10.1
2019-04-03T07:09:39.283Z,10.1
2019-04-03T07:10:41.217Z,10.1
2019-04-03T07:11:36.868Z,10.2
2019-04-03T07:12:37.008Z,10.2
2019-04-03T07:14:34.994Z,10.3
2019-04-03T07:15:05.401Z,10.3
2019-04-03T07:15:35.692Z,10.3
2019-04-03T07:16:33.504Z,10.3
2019-04-03T07:17:34.264Z,10.4
2019-04-03T07:18:31.428Z,10.4
2019-04-03T07:19:30.413Z,10.4
2019-04-03T07:20:29.864Z,10.5
2019-04-03T07:21:29.402Z,10.5
2019-04-03T07:22:29.691Z,10.5
2019-04-03T07:23:30.995Z,10.6
2019-04-03T07:24:25.840Z,10.6
2019-04-03T07:24:56.702Z,10.6
2019-04-03T07:25:27.062Z,10.6
2019-04-03T07:25:57.733Z,10.6
2019-04-03T07:26:28.232Z,10.7
2019-04-03T07:26:58.428Z,10.7
2019-04-03T07:27:29.197Z,10.7
2019-04-03T07:28:22.745Z,10.7
2019-04-03T07:29:26.429Z,10.8
2019-04-03T07:30:23.649Z,10.8
2019-04-03T07:31:21.544Z,10.8
2019-04-03T07:32:19.277Z,10.8
2019-04-03T07:33:18.586Z,10.9
2019-04-03T07:34:17.668Z,10.9
2019-04-03T07:34:48.124Z,10.9
2019-04-03T07:35:18.458Z,10.9
2019-04-03T07:35:48.650Z,10.9
2019-04-03T07:36:19.417Z,11
2019-04-03T07:36:50.147Z,11
2019-04-03T07:37:21.737Z,11
2019-04-03T07:37:53.607Z,11
2019-04-03T07:38:23.958Z,11
2019-04-03T07:38:51.655Z,11
2019-04-03T07:40:12.770Z,11.1
2019-04-03T07:41:11.954Z,11.1
2019-04-03T07:42:11.020Z,11.1
2019-04-03T07:43:09.934Z,11.1
2019-04-03T07:44:09.314Z,11.2
2019-04-03T07:44:40.060Z,11.2
2019-04-03T07:45:10.461Z,11.2
2019-04-03T07:45:40.633Z,11.2
2019-04-03T07:46:11.117Z,11.3
2019-04-03T07:46:41.703Z,11.3
2019-04-03T07:47:12.950Z,11.3
2019-04-03T07:47:42.846Z,11.3
2019-04-03T07:49:05.015Z,11.4
2019-04-03T07:50:04.694Z,11.5
2019-04-03T07:51:03.252Z,11.5
2019-04-03T07:52:02.829Z,11.5
2019-04-03T07:53:01.846Z,11.5
2019-04-03T07:54:03.822Z,11.5
2019-04-03T07:54:31.304Z,11.5
2019-04-03T07:55:02.433Z,11.5
2019-04-03T07:55:32.742Z,11.5
2019-04-03T07:56:03.139Z,11.5
2019-04-03T07:56:33.894Z,11.5
2019-04-03T07:57:03.615Z,11.6
2019-04-03T07:57:34.010Z,11.6
2019-04-03T07:59:56.024Z,11.6
2019-04-03T08:00:55.447Z,11.6
2019-04-03T08:01:54.268Z,11.6
2019-04-03T08:02:53.497Z,11.7
2019-04-03T08:03:54.488Z,11.7
2019-04-03T08:04:27.411Z,11.7
2019-04-03T08:05:01.372Z,11.7
2019-04-03T08:05:23.429Z,11.7
2019-04-03T08:05:58.289Z,11.7
2019-04-03T08:06:24.873Z,11.7
2019-04-03T08:06:55.064Z,11.8
2019-04-03T08:07:26.052Z,11.8
2019-04-03T08:07:56.966Z,11.8
2019-04-03T08:08:26.715Z,11.8
2019-04-03T08:09:47.231Z,11.8
2019-04-03T08:10:46.761Z,11.9
2019-04-03T08:11:45.948Z,11.9
2019-04-03T08:12:45.311Z,12
2019-04-03T08:13:44.188Z,12
2019-04-03T08:14:43.442Z,12
2019-04-03T08:15:15.431Z,12
2019-04-03T08:15:46.549Z,12.1
2019-04-03T08:16:17.913Z,12.1
2019-04-03T08:16:49.294Z,12.1
2019-04-03T08:17:19.491Z,12.1
2019-04-03T08:17:45.625Z,12.2
2019-04-03T08:18:16.129Z,12.2
2019-04-03T08:18:46.942Z,12.2
2019-04-03T08:19:17.879Z,12.2
2019-04-03T08:20:38.651Z,12.2
2019-04-03T08:21:37.879Z,12.2
2019-04-03T08:22:37.356Z,12.3
2019-04-03T08:23:38.921Z,12.3
2019-04-03T08:24:35.458Z,12.3
2019-04-03T08:26:33.200Z,12.3
2019-04-03T08:27:07.328Z,12.3
2019-04-03T08:27:35.281Z,12.4
2019-04-03T08:28:05.256Z,12.4
2019-04-03T08:28:35.790Z,12.4
2019-04-03T08:29:06.196Z,12.4
2019-04-03T08:30:30.827Z,12.4
2019-04-03T08:31:29.715Z,12.5
2019-04-03T08:32:28.891Z,12.5
2019-04-03T08:35:26.599Z,12.6
2019-04-03T08:36:28.424Z,12.7
2019-04-03T08:36:56.240Z,12.7
2019-04-03T08:37:34.231Z,12.7
2019-04-03T08:37:56.929Z,12.7
2019-04-03T08:38:27.896Z,12.7
2019-04-03T08:38:58.194Z,12.7
2019-04-03T08:40:23.150Z,12.8
2019-04-03T08:41:25.921Z,12.9
2019-04-03T08:42:20.456Z,12.9
2019-04-03T08:43:19.321Z,13
2019-04-03T08:44:19.392Z,13
2019-04-03T08:45:22.138Z,13.1
2019-04-03T08:46:17.480Z,13.1
2019-04-03T08:47:16.723Z,13.1
2019-04-03T08:47:48.198Z,13.1
2019-04-03T08:48:19.527Z,13.1
2019-04-03T08:48:47.720Z,13.1
2019-04-03T08:50:14.031Z,13.2
2019-04-03T08:51:13.579Z,13.2
2019-04-03T08:52:16.207Z,13.3
2019-04-03T08:53:12.238Z,13.3
2019-04-03T08:54:12.511Z,13.3
2019-04-03T08:55:15.046Z,13.4
2019-04-03T08:56:09.465Z,13.4
2019-04-03T08:57:08.403Z,13.4
2019-04-03T08:58:07.357Z,13.4
2019-04-03T08:58:37.730Z,13.4
2019-04-03T09:00:06.080Z,13.5
2019-04-03T09:01:06.477Z,13.6
2019-04-03T09:02:05.795Z,13.6
2019-04-03T09:03:05.893Z,13.6
2019-04-03T09:04:02.774Z,13.7
2019-04-03T09:05:01.782Z,13.7
2019-04-03T09:06:01.342Z,13.7
2019-04-03T09:07:00.205Z,13.8
2019-04-03T09:08:00.102Z,13.8
2019-04-03T09:09:00.553Z,13.9
2019-04-03T09:09:35.733Z,13.9
2019-04-03T09:10:03.168Z,13.9
2019-04-03T09:10:38.285Z,13.9
2019-04-03T09:11:00.126Z,13.9
2019-04-03T09:11:56.749Z,13.9
2019-04-03T09:12:55.574Z,13.9
2019-04-03T09:13:57.161Z,13.9
2019-04-03T09:14:27.076Z,13.9
2019-04-03T09:14:59.095Z,13.9
2019-04-03T09:15:30.222Z,13.9
2019-04-03T09:16:01.296Z,13.9
2019-04-03T09:16:52.289Z,14
2019-04-03T09:17:51.962Z,14
2019-04-03T09:18:51.070Z,14
2019-04-03T09:19:50.199Z,14.1
2019-04-03T09:20:49.280Z,14.1
2019-04-03T09:21:52.601Z,14.1
2019-04-03T09:22:47.719Z,14.1
2019-04-03T09:23:46.834Z,14.1
2019-04-03T09:24:46.102Z,14.2
2019-04-03T09:25:16.969Z,14.2
2019-04-03T09:25:47.441Z,14.2
2019-04-03T09:26:44.512Z,14.2
2019-04-03T09:27:44.393Z,14.2
2019-04-03T09:28:44.089Z,14.2
2019-04-03T09:29:46.212Z,14.2
2019-04-03T09:30:41.149Z,14.3
2019-04-03T09:31:41.139Z,14.3
2019-04-03T09:32:40.154Z,14.4
2019-04-03T09:34:38.628Z,14.4
2019-04-03T09:35:09.280Z,14.4
2019-04-03T09:36:37.407Z,14.4
2019-04-03T09:37:39.554Z,14.4
2019-04-03T09:38:42.200Z,14.4
2019-04-03T09:39:34.775Z,14.5
2019-04-03T09:40:34.081Z,14.5
2019-04-03T09:41:33.044Z,14.6
2019-04-03T09:42:31.913Z,14.7
2019-04-03T09:43:31.542Z,14.7
2019-04-03T09:44:31.209Z,14.8
2019-04-03T09:45:01.115Z,14.8
2019-04-03T09:45:31.801Z,14.9
2019-04-03T09:46:02.495Z,14.9
2019-04-03T09:47:28.319Z,15
2019-04-03T09:48:27.862Z,15
2019-04-03T09:49:26.924Z,15.1
2019-04-03T09:50:26.097Z,15.2
2019-04-03T09:51:25.103Z,15.2
2019-04-03T09:52:53.983Z,15.2
2019-04-03T09:52:57.117Z,15.2
2019-04-03T09:53:28.310Z,15.2
2019-04-03T09:54:23.295Z,15.2
2019-04-03T09:54:53.092Z,15.2
2019-04-03T09:55:23.379Z,15.2
2019-04-03T09:55:53.652Z,15.2
2019-04-03T09:56:24.057Z,15.3
2019-04-03T09:57:06.943Z,15.3
2019-04-03T09:57:24.794Z,15.3
2019-04-03T09:57:55.637Z,15.3
2019-04-03T09:59:19.511Z,15.4
2019-04-03T10:00:18.735Z,15.4
2019-04-03T10:01:20.804Z,15.4
2019-04-03T10:02:21.572Z,15.5
2019-04-03T10:03:16.254Z,15.5
2019-04-03T10:04:15.275Z,15.6
2019-04-03T10:04:45.651Z,15.6
2019-04-03T10:05:16.153Z,15.6
2019-04-03T10:05:46.622Z,15.6
2019-04-03T10:06:17.295Z,15.7
2019-04-03T10:06:47.686Z,15.7
2019-04-03T10:07:18.098Z,15.7
2019-04-03T10:07:48.448Z,15.7
2019-04-03T10:08:18.720Z,15.7
2019-04-03T10:08:49.164Z,15.7
2019-04-03T10:10:10.984Z,15.8
2019-04-03T10:11:09.856Z,15.9
2019-04-03T10:12:09.548Z,15.9
2019-04-03T10:13:08.795Z,15.9
2019-04-03T10:14:07.909Z,15.8
2019-04-03T10:15:07.091Z,15.7
2019-04-03T10:15:37.170Z,15.7
2019-04-03T10:16:08.109Z,15.7
2019-04-03T10:16:38.134Z,15.7
2019-04-03T10:17:09.675Z,15.7
2019-04-03T10:17:40.664Z,15.7
2019-04-03T10:18:11.227Z,15.7
2019-04-03T10:18:44.017Z,15.7
2019-04-03T10:19:15.346Z,15.8
2019-04-03T10:19:40.668Z,15.8
2019-04-03T10:21:02.431Z,15.8
2019-04-03T10:22:02.282Z,15.9
2019-04-03T10:23:01.187Z,15.9
2019-04-03T10:24:02.105Z,15.9
2019-04-03T10:25:07.360Z,15.9
2019-04-03T10:25:30.176Z,15.9
2019-04-03T10:26:00.555Z,15.9
2019-04-03T10:26:32.936Z,15.9
2019-04-03T10:27:01.746Z,15.9
2019-04-03T10:27:31.589Z,15.9
2019-04-03T10:28:02.246Z,15.9
2019-04-03T10:28:32.608Z,15.9
2019-04-03T10:29:03.156Z,15.9
2019-04-03T10:29:33.541Z,15.9
2019-04-03T10:30:55.703Z,15.9
2019-04-03T10:31:57.448Z,16
2019-04-03T10:32:53.593Z,16
2019-04-03T10:33:53.057Z,15.8
2019-04-03T10:34:52.307Z,15.8
2019-04-03T10:35:51.989Z,15.8
2019-04-03T10:36:22.060Z,15.8
2019-04-03T10:36:53.002Z,15.8
2019-04-03T10:37:22.940Z,15.8
2019-04-03T10:37:53.464Z,15.8
2019-04-03T10:38:23.666Z,15.8
2019-04-03T10:38:54.057Z,15.8
2019-04-03T10:39:24.604Z,15.8
2019-04-03T10:39:55.483Z,15.8
2019-04-03T10:40:26.872Z,15.8
2019-04-03T10:41:47.255Z,15.9
2019-04-03T10:42:46.490Z,15.9
2019-04-03T10:43:45.635Z,15.9
2019-04-03T10:44:44.819Z,15.9
2019-04-03T10:45:44.076Z,15.9
2019-04-03T10:46:43.504Z,16
2019-04-03T10:47:13.725Z,16
2019-04-03T10:47:46.198Z,16
2019-04-03T10:48:14.034Z,16
2019-04-03T10:48:44.686Z,16.1
2019-04-03T10:49:14.936Z,16.1
2019-04-03T10:49:45.438Z,16.1
2019-04-03T10:50:16.127Z,16.1
2019-04-03T10:51:43.396Z,16.2
2019-04-03T10:52:39.412Z,16.3
2019-04-03T10:53:37.930Z,16.3
2019-04-03T10:54:40.239Z,16.4
2019-04-03T10:55:37.247Z,16.4
2019-04-03T10:56:35.831Z,16.5
2019-04-03T10:57:37.178Z,16.5
2019-04-03T10:58:10.706Z,16.5
2019-04-03T10:58:44.808Z,16.5
2019-04-03T10:59:19.551Z,16.5
2019-04-03T10:59:38.072Z,16.6
2019-04-03T11:00:08.083Z,16.6
2019-04-03T11:01:32.448Z,16.7
2019-04-03T11:02:31.845Z,16.7